Time;durP1;ratioP1;P1;durP2;ratioP2;P2;SDS_P1;SDS_P2;PMS_P1;PMS_P2;Temp;Humidity;BMP_temperature;BMP_pressure;BME280_temperature;BME280_humidity;BME280_pressure;Samples;Min_cycle;Max_cycle;Signal;HPM_P1;HPM_P2
2021/07/25 00:00:35;;;;;;;13.30;11.80;;;18.40;99.90;;;;;;5086976;28;20815;-67
2021/07/25 00:03:03;;;;;;;14.87;13.27;;;18.40;99.90;;;;;;5087422;28;20442;-67
2021/07/25 00:05:30;;;;;;;15.73;13.90;;;18.40;99.90;;;;;;5087300;28;20450;-67
2021/07/25 00:07:58;;;;;;;15.00;12.33;;;18.40;99.90;;;;;;5087261;28;20485;-66
2021/07/25 00:10:25;;;;;;;17.10;14.27;;;18.40;99.90;;;;;;5086066;28;20446;-67
2021/07/25 00:12:52;;;;;;;17.53;13.00;;;18.40;99.90;;;;;;5087401;28;20477;-66
2021/07/25 00:15:19;;;;;;;15.70;13.90;;;18.40;99.90;;;;;;5086769;28;21087;-67
2021/07/25 00:17:46;;;;;;;16.60;13.47;;;18.40;99.90;;;;;;5086825;28;20542;-66
2021/07/25 00:20:14;;;;;;;16.77;12.47;;;18.50;99.90;;;;;;5083303;28;20451;-67
2021/07/25 00:22:41;;;;;;;17.50;14.83;;;18.50;99.90;;;;;;5079483;28;20438;-66
2021/07/25 00:25:14;;;;;;;17.47;15.47;;;18.50;99.90;;;;;;5085686;28;21030;-68
2021/07/25 00:27:41;;;;;;;21.73;16.80;;;18.50;99.90;;;;;;5084412;28;20485;-69
2021/07/25 00:30:10;;;;;;;17.97;16.07;;;18.60;99.90;;;;;;5079665;28;20453;-67
2021/07/25 00:32:38;;;;;;;24.20;19.07;;;18.60;99.90;;;;;;5087133;28;21002;-67
2021/07/25 00:35:05;;;;;;;22.13;16.40;;;18.60;99.90;;;;;;5085875;28;20454;-66
2021/07/25 00:37:33;;;;;;;19.83;17.23;;;18.60;99.90;;;;;;5082960;28;20462;-68
2021/07/25 00:39:59;;;;;;;30.20;19.23;;;18.60;99.90;;;;;;5082692;28;20538;-67
2021/07/25 00:42:37;;;;;;;19.70;17.53;;;18.60;99.90;;;;;;5082288;28;20438;-67
2021/07/25 00:45:05;;;;;;;21.70;17.33;;;18.70;99.90;;;;;;5080267;28;20456;-67
2021/07/25 00:47:32;;;;;;;19.57;16.47;;;18.70;99.90;;;;;;5079977;28;20572;-67
2021/07/25 00:49:59;;;;;;;18.17;15.83;;;18.70;99.90;;;;;;5079297;28;21363;-68
2021/07/25 00:52:26;;;;;;;16.47;14.77;;;18.70;99.90;;;;;;5075523;28;20458;-66
2021/07/25 00:54:53;;;;;;;20.30;16.20;;;18.70;99.90;;;;;;5083453;28;20529;-66
2021/07/25 00:57:19;;;;;;;21.87;16.77;;;18.70;99.90;;;;;;5086552;28;21019;-68
2021/07/25 00:59:48;;;;;;;18.40;16.00;;;18.60;99.90;;;;;;5085975;28;20537;-66
2021/07/25 01:02:14;;;;;;;18.97;15.80;;;18.70;99.90;;;;;;5086514;28;20457;-68
2021/07/25 01:04:46;;;;;;;19.23;14.80;;;18.70;99.90;;;;;;5089817;28;20533;-68
2021/07/25 01:07:19;;;;;;;18.83;15.57;;;18.70;99.90;;;;;;5090755;28;20493;-67
2021/07/25 01:09:53;;;;;;;21.00;16.20;;;18.70;99.90;;;;;;5091505;28;20476;-66
2021/07/25 01:12:24;;;;;;;22.70;16.67;;;18.60;99.90;;;;;;5091161;28;20454;-68
2021/07/25 01:14:54;;;;;;;20.60;17.60;;;18.60;99.90;;;;;;5091356;28;20456;-66
2021/07/25 01:17:26;;;;;;;21.17;17.93;;;18.60;99.90;;;;;;5092714;28;21001;-67
2021/07/25 01:19:54;;;;;;;20.47;18.27;;;18.70;99.90;;;;;;5092983;28;20532;-66
2021/07/25 01:22:21;;;;;;;27.37;20.37;;;18.60;99.90;;;;;;5092989;28;20446;-67
2021/07/25 01:24:48;;;;;;;27.57;21.70;;;18.60;99.90;;;;;;5093365;28;20460;-69
2021/07/25 01:27:22;;;;;;;20.70;18.50;;;18.60;99.90;;;;;;5092947;28;20488;-67
2021/07/25 01:29:50;;;;;;;24.57;19.77;;;18.60;99.90;;;;;;5092437;28;20679;-68
2021/07/25 01:32:17;;;;;;;24.60;19.87;;;18.60;99.90;;;;;;5092988;28;20818;-66
2021/07/25 01:34:45;;;;;;;23.77;19.97;;;18.60;99.90;;;;;;5092669;28;20826;-69
2021/07/25 01:37:15;;;;;;;25.60;20.57;;;18.70;99.90;;;;;;5092985;28;20549;-68
2021/07/25 01:39:42;;;;;;;24.70;19.87;;;18.60;99.90;;;;;;5092356;28;20541;-66
2021/07/25 01:42:09;;;;;;;22.77;19.50;;;18.70;99.90;;;;;;5092495;28;20449;-67
2021/07/25 01:44:36;;;;;;;25.73;20.83;;;18.60;99.90;;;;;;5092630;28;20541;-67
2021/07/25 01:47:03;;;;;;;18.33;16.43;;;18.70;99.90;;;;;;5092197;28;20486;-68
2021/07/25 01:49:30;;;;;;;20.70;18.50;;;18.70;99.90;;;;;;5092333;28;20456;-67
2021/07/25 01:51:56;;;;;;;22.90;18.27;;;18.60;99.90;;;;;;5092394;28;20552;-68
2021/07/25 01:54:25;;;;;;;23.30;18.43;;;18.60;99.90;;;;;;5091663;28;20537;-70
2021/07/25 01:56:51;;;;;;;20.97;17.87;;;18.70;99.90;;;;;;5091811;28;20461;-66
2021/07/25 01:59:18;;;;;;;23.20;17.67;;;18.70;99.90;;;;;;5092153;28;20965;-67
2021/07/25 02:01:45;;;;;;;21.77;17.20;;;18.70;99.90;;;;;;5091931;28;20461;-67
2021/07/25 02:04:12;;;;;;;20.23;17.90;;;18.70;99.90;;;;;;5092424;28;20446;-66
2021/07/25 02:06:39;;;;;;;22.60;17.40;;;18.60;99.90;;;;;;5092002;28;20577;-66
2021/07/25 02:09:05;;;;;;;23.40;19.43;;;18.60;99.90;;;;;;5091966;28;20446;-68
2021/07/25 02:11:33;;;;;;;23.87;18.60;;;18.60;99.90;;;;;;5092113;28;20438;-67
2021/07/25 02:14:00;;;;;;;20.43;18.23;;;18.60;99.90;;;;;;5091632;28;21183;-65
2021/07/25 02:16:27;;;;;;;23.57;19.27;;;18.60;99.90;;;;;;5092047;28;20983;-68
2021/07/25 02:18:54;;;;;;;21.33;17.70;;;18.60;99.90;;;;;;5092022;28;20442;-66
2021/07/25 02:21:21;;;;;;;22.33;19.80;;;18.50;99.90;;;;;;5091965;28;20441;-65
2021/07/25 02:23:48;;;;;;;19.03;17.10;;;18.50;99.90;;;;;;5091723;28;20512;-67
2021/07/25 02:26:14;;;;;;;22.67;18.60;;;18.50;99.90;;;;;;5092207;28;20442;-66
2021/07/25 02:28:42;;;;;;;24.90;17.33;;;18.50;99.90;;;;;;5091716;28;20473;-66
2021/07/25 02:31:09;;;;;;;20.43;17.90;;;18.40;99.90;;;;;;5091717;28;20534;-69
2021/07/25 02:33:36;;;;;;;25.27;18.77;;;18.40;99.90;;;;;;5091703;28;20430;-66
2021/07/25 02:36:04;;;;;;;22.33;19.90;;;18.40;99.90;;;;;;5091939;28;20438;-66
2021/07/25 02:38:30;;;;;;;29.20;20.23;;;18.40;99.90;;;;;;5091652;28;20454;-66
2021/07/25 02:40:57;;;;;;;25.30;19.50;;;18.40;99.90;;;;;;5091918;28;20821;-66
2021/07/25 02:43:24;;;;;;;22.70;19.50;;;18.50;99.90;;;;;;5091897;28;20454;-68
2021/07/25 02:45:52;;;;;;;22.40;19.67;;;18.60;99.90;;;;;;5091882;28;20434;-66
2021/07/25 02:48:19;;;;;;;22.00;19.70;;;18.50;99.90;;;;;;5091584;28;20489;-67
2021/07/25 02:50:46;;;;;;;42.37;23.40;;;18.50;99.90;;;;;;5090924;28;20945;-66
2021/07/25 02:53:12;;;;;;;25.33;21.77;;;18.50;99.90;;;;;;5091338;28;20531;-67
2021/07/25 02:55:39;;;;;;;25.43;22.00;;;18.40;99.90;;;;;;5091487;28;20533;-66
2021/07/25 02:58:06;;;;;;;29.23;23.70;;;18.40;99.90;;;;;;5091282;28;20485;-68
2021/07/25 03:00:33;;;;;;;26.50;21.50;;;18.40;99.90;;;;;;5090766;28;20450;-67
2021/07/25 03:03:01;;;;;;;31.53;21.80;;;18.50;99.90;;;;;;5091229;28;20443;-65
2021/07/25 03:05:28;;;;;;;31.03;23.27;;;18.50;99.90;;;;;;5090856;28;20438;-66
2021/07/25 03:07:55;;;;;;;25.40;21.13;;;18.50;99.90;;;;;;5090852;28;21000;-69
2021/07/25 03:10:22;;;;;;;31.00;20.73;;;18.50;99.90;;;;;;5090763;28;20446;-67
2021/07/25 03:12:48;;;;;;;26.53;21.67;;;18.50;99.90;;;;;;5091043;28;20899;-69
2021/07/25 03:15:15;;;;;;;28.47;22.00;;;18.60;99.90;;;;;;5090892;28;20453;-68
2021/07/25 03:17:42;;;;;;;25.70;19.30;;;18.60;99.90;;;;;;5090784;28;20462;-67
2021/07/25 03:20:12;;;;;;;26.03;21.83;;;18.50;99.90;;;;;;5090195;28;20452;-69
2021/07/25 03:22:38;;;;;;;23.03;20.53;;;18.50;99.90;;;;;;5090840;28;20450;-66
2021/07/25 03:25:06;;;;;;;24.77;21.73;;;18.60;99.90;;;;;;5090598;28;21034;-67
2021/07/25 03:27:33;;;;;;;23.40;20.40;;;18.60;99.90;;;;;;5090028;28;20486;-68
2021/07/25 03:30:00;;;;;;;32.63;20.87;;;18.50;99.90;;;;;;5090401;28;20452;-69
2021/07/25 03:32:27;;;;;;;24.67;20.70;;;18.50;99.90;;;;;;5090491;28;20853;-67
2021/07/25 03:34:54;;;;;;;22.77;20.23;;;18.40;99.90;;;;;;5090951;28;20452;-66
2021/07/25 03:37:23;;;;;;;22.93;20.40;;;18.40;99.90;;;;;;5090318;28;20469;-66
2021/07/25 03:39:53;;;;;;;25.50;21.37;;;18.30;99.90;;;;;;5090270;28;20454;-68
2021/07/25 03:42:20;;;;;;;27.77;20.60;;;18.30;99.90;;;;;;5090538;28;20453;-67
2021/07/25 03:44:46;;;;;;;20.23;18.17;;;18.30;99.90;;;;;;5090410;28;20563;-67
2021/07/25 03:47:14;;;;;;;21.03;18.80;;;18.30;99.90;;;;;;5090047;28;20504;-68
2021/07/25 03:49:42;;;;;;;42.57;21.17;;;18.20;99.90;;;;;;5089801;28;20477;-66
2021/07/25 03:52:11;;;;;;;23.53;19.07;;;18.10;99.90;;;;;;5090159;28;21155;-67
2021/07/25 03:54:42;;;;;;;24.93;18.60;;;18.10;99.90;;;;;;5090266;28;20442;-69
2021/07/25 03:57:09;;;;;;;26.10;20.97;;;18.00;99.90;;;;;;5090282;28;20476;-66
2021/07/25 03:59:36;;;;;;;22.90;19.23;;;18.00;99.90;;;;;;5089696;28;20453;-68
2021/07/25 04:02:03;;;;;;;24.33;21.40;;;18.00;99.90;;;;;;5090200;28;21059;-67
2021/07/25 04:04:30;;;;;;;29.60;20.87;;;18.10;99.90;;;;;;5090075;28;20453;-67
2021/07/25 04:06:57;;;;;;;22.77;20.37;;;18.00;99.90;;;;;;5090155;28;20469;-67
2021/07/25 04:09:24;;;;;;;24.60;20.73;;;18.10;99.90;;;;;;5089693;28;21003;-70
2021/07/25 04:11:54;;;;;;;26.07;20.70;;;18.00;99.90;;;;;;5090102;28;20446;-66
2021/07/25 04:14:21;;;;;;;23.50;20.90;;;18.00;99.90;;;;;;5089765;28;20489;-66
2021/07/25 04:16:49;;;;;;;26.63;21.30;;;18.00;99.90;;;;;;5089853;28;20469;-69
2021/07/25 04:19:17;;;;;;;26.20;22.13;;;17.90;99.90;;;;;;5089666;28;20798;-65
2021/07/25 04:21:44;;;;;;;27.43;22.73;;;17.90;99.90;;;;;;5089889;28;20525;-66
2021/07/25 04:24:11;;;;;;;26.77;22.40;;;17.80;99.90;;;;;;5089849;28;20448;-69
2021/07/25 04:26:38;;;;;;;33.57;24.47;;;17.90;99.90;;;;;;5089570;28;20540;-66
2021/07/25 04:29:07;;;;;;;28.13;23.07;;;18.00;99.90;;;;;;5089808;28;20490;-67
2021/07/25 04:31:35;;;;;;;26.50;23.30;;;18.10;99.90;;;;;;5089850;28;20449;-67
2021/07/25 04:34:02;;;;;;;32.27;25.97;;;18.10;99.90;;;;;;5090166;28;20450;-66
2021/07/25 04:36:30;;;;;;;32.93;25.37;;;18.10;99.90;;;;;;5089646;28;20468;-69
2021/07/25 04:38:57;;;;;;;62.00;27.53;;;18.10;99.90;;;;;;5093680;28;20867;-66
2021/07/25 04:41:26;;;;;;;39.97;24.80;;;18.10;99.90;;;;;;5093831;28;20457;-67
2021/07/25 04:44:02;;;;;;;27.00;23.87;;;18.20;99.90;;;;;;5094069;28;20507;-66
2021/07/25 04:46:33;;;;;;;34.07;26.83;;;18.30;99.90;;;;;;5093906;28;20534;-66
2021/07/25 04:49:06;;;;;;;29.17;24.60;;;18.30;99.90;;;;;;5093549;28;20485;-67
2021/07/25 04:51:36;;;;;;;32.80;25.67;;;18.50;99.90;;;;;;5093886;28;20510;-65
2021/07/25 04:54:07;;;;;;;29.97;22.50;;;18.60;99.90;;;;;;5093831;28;20536;-70
2021/07/25 04:56:40;;;;;;;30.80;23.17;;;18.60;99.90;;;;;;5093421;28;20469;-68
2021/07/25 04:59:15;;;;;;;31.07;24.47;;;18.80;99.90;;;;;;5093134;28;20473;-67
2021/07/25 05:01:47;;;;;;;30.30;24.10;;;18.80;99.90;;;;;;5093487;28;20441;-69
2021/07/25 05:04:14;;;;;;;29.00;21.60;;;18.80;99.90;;;;;;5093094;28;20936;-68
2021/07/25 05:06:41;;;;;;;31.83;23.80;;;18.70;99.90;;;;;;5093390;28;20462;-66
2021/07/25 05:09:09;;;;;;;25.83;21.67;;;18.60;99.90;;;;;;5092697;28;21019;-68
2021/07/25 05:11:45;;;;;;;28.30;23.53;;;18.60;99.90;;;;;;5093091;28;20449;-68
2021/07/25 05:14:22;;;;;;;27.83;23.43;;;18.70;99.90;;;;;;5093124;28;20881;-69
2021/07/25 05:17:01;;;;;;;31.77;24.77;;;18.80;99.90;;;;;;5092970;28;20466;-68
2021/07/25 05:19:35;;;;;;;34.07;24.90;;;18.80;99.90;;;;;;5092549;28;20445;-69
2021/07/25 05:22:10;;;;;;;33.17;23.80;;;18.80;99.90;;;;;;5093116;28;20450;-65
2021/07/25 05:24:44;;;;;;;23.17;20.13;;;18.90;99.90;;;;;;5092896;28;20452;-67
2021/07/25 05:27:18;;;;;;;22.60;19.00;;;19.00;99.90;;;;;;5092801;28;20461;-67
2021/07/25 05:29:47;;;;;;;22.87;20.37;;;19.20;99.90;;;;;;5092555;28;20494;-69
2021/07/25 05:32:16;;;;;;;24.93;19.20;;;19.30;99.90;;;;;;5092996;28;20446;-66
2021/07/25 05:34:43;;;;;;;26.50;19.83;;;19.30;99.90;;;;;;5092817;28;20453;-67
2021/07/25 05:37:10;;;;;;;24.40;18.80;;;19.30;99.90;;;;;;5092454;28;20474;-68
2021/07/25 05:39:37;;;;;;;26.97;20.67;;;19.20;99.90;;;;;;5092221;28;20444;-67
2021/07/25 05:42:04;;;;;;;27.53;20.03;;;19.30;99.90;;;;;;5092653;28;20537;-66
2021/07/25 05:44:31;;;;;;;22.70;20.37;;;19.30;99.90;;;;;;5092477;28;20962;-67
2021/07/25 05:46:59;;;;;;;23.17;19.80;;;19.30;99.90;;;;;;5092116;28;20983;-67
2021/07/25 05:49:27;;;;;;;25.80;20.93;;;19.40;99.90;;;;;;5091327;28;20489;-66
2021/07/25 05:51:54;;;;;;;23.60;19.50;;;19.40;99.90;;;;;;5092345;28;20472;-70
2021/07/25 05:54:21;;;;;;;23.90;19.77;;;19.50;99.90;;;;;;5092315;28;20454;-67
2021/07/25 05:56:48;;;;;;;21.93;19.57;;;19.50;99.90;;;;;;5092282;28;20557;-65
2021/07/25 05:59:15;;;;;;;27.10;20.90;;;19.50;99.90;;;;;;5092066;28;20446;-68
2021/07/25 06:01:41;;;;;;;23.23;19.70;;;19.60;99.90;;;;;;5092230;28;20452;-66
2021/07/25 06:04:08;;;;;;;22.57;17.60;;;19.60;99.90;;;;;;5092342;28;20468;-66
2021/07/25 06:06:37;;;;;;;22.87;20.13;;;19.60;99.90;;;;;;5092116;28;20472;-69
2021/07/25 06:09:06;;;;;;;22.03;19.77;;;19.50;99.90;;;;;;5091869;28;20962;-67
2021/07/25 06:11:33;;;;;;;21.73;19.53;;;19.40;99.90;;;;;;5092288;28;20446;-67
2021/07/25 06:14:01;;;;;;;21.37;19.23;;;19.40;99.90;;;;;;5092077;28;20454;-66
2021/07/25 06:16:28;;;;;;;23.70;18.70;;;19.50;99.90;;;;;;5092137;28;20867;-67
2021/07/25 06:18:54;;;;;;;21.53;18.50;;;19.50;99.90;;;;;;5091674;28;20931;-66
2021/07/25 06:21:23;;;;;;;20.63;18.43;;;19.50;99.90;;;;;;5091764;28;20445;-69
2021/07/25 06:23:52;;;;;;;21.20;18.90;;;19.50;99.90;;;;;;5092067;28;20453;-67
2021/07/25 06:26:19;;;;;;;21.13;17.67;;;19.60;99.90;;;;;;5092024;28;20940;-68
2021/07/25 06:28:46;;;;;;;19.37;16.23;;;19.90;99.90;;;;;;5091936;28;20523;-68
2021/07/25 06:31:13;;;;;;;20.50;16.77;;;20.30;99.90;;;;;;5091786;28;20465;-67
2021/07/25 06:33:40;;;;;;;19.20;15.90;;;20.50;99.90;;;;;;5091630;28;20530;-66
2021/07/25 06:36:10;;;;;;;17.90;16.10;;;20.60;99.90;;;;;;5091272;28;20442;-67
2021/07/25 06:38:38;;;;;;;15.47;14.07;;;20.80;99.90;;;;;;5091817;28;20434;-67
2021/07/25 06:41:06;;;;;;;16.97;14.53;;;20.90;99.90;;;;;;5091239;28;20442;-69
2021/07/25 06:43:33;;;;;;;15.43;13.83;;;21.10;99.90;;;;;;5091490;28;20449;-66
2021/07/25 06:46:00;;;;;;;16.60;13.77;;;21.30;99.90;;;;;;5090864;28;20457;-69
2021/07/25 06:48:29;;;;;;;13.50;12.10;;;21.30;99.90;;;;;;5091178;28;20482;-67
2021/07/25 06:50:57;;;;;;;17.13;13.30;;;21.60;99.90;;;;;;5090964;28;20446;-67
2021/07/25 06:53:25;;;;;;;16.57;11.40;;;21.90;99.90;;;;;;5091433;28;20451;-66
2021/07/25 06:55:54;;;;;;;10.70;9.27;;;22.30;99.90;;;;;;5090942;28;20447;-66
2021/07/25 06:58:23;;;;;;;11.30;10.13;;;22.60;99.90;;;;;;5090959;28;20466;-68
2021/07/25 07:00:50;;;;;;;12.40;10.63;;;23.10;99.90;;;;;;5089802;28;20458;-65
2021/07/25 07:03:19;;;;;;;13.37;10.10;;;23.50;99.90;;;;;;5091280;28;20583;-67
2021/07/25 07:05:46;;;;;;;14.60;10.27;;;24.00;99.90;;;;;;5090835;28;20431;-65
2021/07/25 07:08:13;;;;;;;12.90;8.87;;;24.60;99.90;;;;;;5090770;28;20468;-68
2021/07/25 07:10:42;;;;;;;9.50;8.30;;;25.00;99.90;;;;;;5090648;28;20460;-68
2021/07/25 07:13:10;;;;;;;10.53;8.30;;;25.30;99.90;;;;;;5090576;28;20449;-69
2021/07/25 07:15:41;;;;;;;10.40;9.30;;;25.20;99.90;;;;;;5090923;28;20448;-69
2021/07/25 07:18:08;;;;;;;10.47;8.50;;;25.20;99.90;;;;;;5090595;28;20472;-66
2021/07/25 07:20:35;;;;;;;11.33;9.20;;;24.90;99.90;;;;;;5090463;28;20453;-70
2021/07/25 07:23:04;;;;;;;10.70;9.53;;;24.70;99.90;;;;;;5090620;28;20468;-68
2021/07/25 07:25:34;;;;;;;11.53;8.50;;;24.70;99.90;;;;;;5090609;28;20456;-67
2021/07/25 07:28:01;;;;;;;9.67;8.60;;;24.30;99.90;;;;;;5090331;28;21047;-67
2021/07/25 07:30:28;;;;;;;9.93;8.80;;;24.00;99.90;;;;;;5090096;28;20485;-67
2021/07/25 07:32:56;;;;;;;11.27;9.47;;;24.10;99.90;;;;;;5090488;28;20521;-68
2021/07/25 07:35:23;;;;;;;9.60;8.40;;;24.00;99.90;;;;;;5090539;28;20533;-66
2021/07/25 07:37:50;;;;;;;10.20;9.20;;;24.10;99.90;;;;;;5090148;28;20455;-66
2021/07/25 07:40:17;;;;;;;11.40;8.10;;;24.00;99.90;;;;;;5090495;28;20446;-66
2021/07/25 07:42:44;;;;;;;9.03;8.10;;;24.00;99.90;;;;;;5090266;28;20461;-67
2021/07/25 07:45:14;;;;;;;9.00;7.67;;;23.90;99.90;;;;;;5090166;28;20444;-67
2021/07/25 07:47:40;;;;;;;8.93;8.03;;;23.60;99.90;;;;;;5090166;28;20992;-66
2021/07/25 07:50:10;;;;;;;9.00;7.63;;;23.60;99.90;;;;;;5089923;28;20513;-68
2021/07/25 07:52:37;;;;;;;7.57;6.87;;;23.70;99.90;;;;;;5090353;28;20457;-67
2021/07/25 07:55:05;;;;;;;8.07;7.27;;;23.80;99.90;;;;;;5090344;28;20464;-69
2021/07/25 07:57:32;;;;;;;9.87;8.60;;;24.00;99.90;;;;;;5090370;28;20476;-67
2021/07/25 07:59:59;;;;;;;9.20;7.83;;;23.80;99.90;;;;;;5089837;28;20799;-65
2021/07/25 08:02:25;;;;;;;8.52;7.72;;;23.70;99.90;;;;;;5089225;28;20443;-65
2021/07/25 08:04:52;;;;;;;10.93;8.23;;;23.80;99.90;;;;;;5090079;28;20220;-67
2021/07/25 08:07:21;;;;;;;8.80;7.90;;;24.00;99.90;;;;;;5090197;28;20470;-66
2021/07/25 08:09:47;;;;;;;10.63;7.57;;;24.10;99.90;;;;;;5090059;28;20500;-65
2021/07/25 08:12:14;;;;;;;10.47;8.47;;;23.80;99.90;;;;;;5089847;28;20458;-67
2021/07/25 08:14:41;;;;;;;10.83;8.37;;;23.30;99.90;;;;;;5090229;28;20947;-67
2021/07/25 08:17:08;;;;;;;12.10;8.30;;;22.90;99.90;;;;;;5090219;28;20545;-66
2021/07/25 08:19:35;;;;;;;9.30;8.30;;;22.90;99.90;;;;;;5090129;28;20438;-67
2021/07/25 08:22:03;;;;;;;9.20;8.20;;;23.10;99.90;;;;;;5090678;28;20446;-66
2021/07/25 08:24:33;;;;;;;11.40;9.07;;;23.20;99.90;;;;;;5090538;28;20446;-66
2021/07/25 08:27:00;;;;;;;10.90;8.70;;;23.40;99.90;;;;;;5089935;28;20470;-66
2021/07/25 08:29:27;;;;;;;9.87;7.63;;;23.60;99.90;;;;;;5089750;28;20646;-66
2021/07/25 08:31:54;;;;;;;10.40;8.00;;;23.80;99.90;;;;;;5089698;28;20446;-68
2021/07/25 08:34:20;;;;;;;7.57;6.87;;;23.90;99.90;;;;;;5089816;28;20442;-66
2021/07/25 08:36:47;;;;;;;8.37;7.57;;;24.00;99.90;;;;;;5083707;28;20474;-69
2021/07/25 08:39:14;;;;;;;11.67;7.97;;;24.10;99.90;;;;;;5086198;28;20888;-67
2021/07/25 08:42:03;;;;;;;9.07;8.17;;;24.00;99.90;;;;;;5089280;28;20442;-68
2021/07/25 08:44:48;;;;;;;11.40;8.53;;;23.70;99.90;;;;;;5078822;28;20448;-66
2021/07/25 08:47:21;;;;;;;8.53;7.50;;;23.40;99.90;;;;;;5081961;28;20466;-64
2021/07/25 08:49:55;;;;;;;8.50;7.50;;;23.20;99.90;;;;;;5085144;28;20581;-66
2021/07/25 08:52:24;;;;;;;9.43;7.70;;;23.10;99.90;;;;;;5072085;28;20450;-69
2021/07/25 08:54:51;;;;;;;13.23;9.07;;;23.10;99.90;;;;;;5072620;28;20545;-69
2021/07/25 08:57:22;;;;;;;8.90;8.00;;;23.00;99.90;;;;;;5077555;28;21048;-69
2021/07/25 08:59:52;;;;;;;10.50;8.33;;;23.10;99.90;;;;;;5079074;28;20441;-68
2021/07/25 09:02:21;;;;;;;12.00;7.50;;;23.10;99.90;;;;;;5074125;28;20806;-68
2021/07/25 09:04:49;;;;;;;9.23;7.70;;;23.10;99.90;;;;;;5079195;28;20451;-67
2021/07/25 09:07:18;;;;;;;7.83;7.03;;;23.20;99.90;;;;;;5078215;28;20554;-67
2021/07/25 09:09:47;;;;;;;8.67;7.27;;;23.50;99.90;;;;;;5079232;28;20489;-68
2021/07/25 09:12:16;;;;;;;10.03;7.67;;;23.70;99.90;;;;;;5081034;28;20442;-65
2021/07/25 09:14:46;;;;;;;7.30;6.60;;;23.80;99.90;;;;;;5075673;28;21704;-67
2021/07/25 09:17:13;;;;;;;8.20;7.37;;;23.60;99.90;;;;;;5080243;28;21083;-67
2021/07/25 09:20:16;;;;;;;15.57;8.70;;;23.50;99.90;;;;;;5086795;28;20484;-67
2021/07/25 09:23:01;;;;;;;7.37;6.70;;;23.20;99.90;;;;;;5076313;28;20444;-68
2021/07/25 09:25:31;;;;;;;8.10;7.40;;;23.20;99.90;;;;;;5076240;28;20469;-69
2021/07/25 09:28:19;;;;;;;9.00;8.10;;;23.40;99.90;;;;;;5082796;28;20991;-66
2021/07/25 09:30:47;;;;;;;9.53;7.10;;;23.70;99.90;;;;;;5077786;28;20484;-63
2021/07/25 09:33:28;;;;;;;8.13;7.30;;;24.00;99.90;;;;;;5078356;28;20458;-69
2021/07/25 09:36:05;;;;;;;11.50;8.00;;;24.30;99.90;;;;;;5085527;28;20823;-65
2021/07/25 09:38:32;;;;;;;9.37;8.37;;;24.70;99.90;;;;;;5083822;28;20458;-68
2021/07/25 09:41:00;;;;;;;7.87;7.07;;;25.20;99.90;;;;;;5079913;28;20439;-67
2021/07/25 09:43:27;;;;;;;7.60;6.90;;;25.70;99.90;;;;;;5081220;28;20501;-67
2021/07/25 09:46:00;;;;;;;7.80;6.97;;;26.10;99.90;;;;;;5078901;28;20453;-69
2021/07/25 09:48:29;;;;;;;8.80;6.60;;;26.30;99.90;;;;;;5080630;28;20528;-67
2021/07/25 09:50:59;;;;;;;7.50;6.80;;;26.60;99.90;;;;;;5081424;28;20481;-64
2021/07/25 09:53:42;;;;;;;7.77;6.67;;;26.60;99.90;;;;;;5079847;28;20466;-67
2021/07/25 09:56:13;;;;;;;7.97;7.27;;;26.50;99.90;;;;;;5080901;28;20473;-66
2021/07/25 09:58:40;;;;;;;8.23;7.17;;;26.20;99.90;;;;;;5079270;28;20451;-68
2021/07/25 10:01:09;;;;;;;8.70;7.80;;;25.60;99.90;;;;;;5082503;28;20439;-67
2021/07/25 10:03:36;;;;;;;7.87;7.07;;;25.30;99.90;;;;;;5085512;28;20538;-66
2021/07/25 10:06:22;;;;;;;7.50;6.80;;;24.90;99.90;;;;;;5080260;28;20959;-66
2021/07/25 10:08:49;;;;;;;8.83;7.93;;;24.40;99.90;;;;;;5077795;28;20443;-68
2021/07/25 10:11:19;;;;;;;9.27;8.43;;;24.00;99.90;;;;;;5071794;28;20482;-68
2021/07/25 10:13:48;;;;;;;9.00;8.10;;;23.60;99.90;;;;;;5072713;28;20956;-66
2021/07/25 10:16:19;;;;;;;9.23;8.43;;;23.30;99.90;;;;;;5079124;28;21087;-67
2021/07/25 10:18:49;;;;;;;9.20;8.30;;;23.10;99.90;;;;;;5077651;28;20900;-67
2021/07/25 10:21:17;;;;;;;10.57;8.50;;;22.90;99.90;;;;;;5084629;28;20508;-70
2021/07/25 10:23:50;;;;;;;10.43;9.43;;;22.70;99.90;;;;;;5084083;28;20448;-70
2021/07/25 10:26:18;;;;;;;9.23;8.30;;;22.50;99.90;;;;;;5082708;28;20538;-68
2021/07/25 10:28:45;;;;;;;10.37;9.20;;;22.40;99.90;;;;;;5081413;28;20524;-68
2021/07/25 10:31:14;;;;;;;11.70;9.07;;;22.30;99.90;;;;;;5078556;28;20474;-65
2021/07/25 10:33:44;;;;;;;11.63;10.50;;;22.20;99.90;;;;;;5081966;28;20450;-65
2021/07/25 10:36:12;;;;;;;12.20;10.40;;;22.10;99.90;;;;;;5081813;28;20542;-68
2021/07/25 10:38:40;;;;;;;10.50;9.43;;;21.90;99.90;;;;;;5084488;28;20506;-67
2021/07/25 10:41:09;;;;;;;14.83;11.63;;;21.70;99.90;;;;;;5081442;28;20516;-66
2021/07/25 10:43:38;;;;;;;12.03;10.73;;;21.60;99.90;;;;;;5078543;28;20815;-67
2021/07/25 10:46:19;;;;;;;15.10;12.23;;;21.60;99.90;;;;;;5082432;28;20989;-67
2021/07/25 10:49:13;;;;;;;18.40;13.40;;;21.60;99.90;;;;;;5083577;28;20442;-66
2021/07/25 10:51:55;;;;;;;14.43;12.77;;;21.80;99.90;;;;;;5082934;28;20488;-70
2021/07/25 10:54:47;;;;;;;10.27;9.00;;;21.90;99.90;;;;;;5085533;28;20668;-66
2021/07/25 10:57:14;;;;;;;11.27;10.13;;;21.70;99.90;;;;;;5081889;28;20486;-66
2021/07/25 10:59:44;;;;;;;10.80;9.67;;;21.40;99.90;;;;;;5082116;28;20438;-64
2021/07/25 11:02:13;;;;;;;13.43;9.77;;;21.20;99.90;;;;;;5084314;28;20450;-67
2021/07/25 11:05:10;;;;;;;10.90;9.10;;;21.10;99.90;;;;;;5088236;28;20561;-65
2021/07/25 11:07:38;;;;;;;11.07;9.87;;;21.00;99.90;;;;;;5084075;28;20462;-66
2021/07/25 11:10:09;;;;;;;10.63;9.50;;;20.90;99.90;;;;;;5080426;28;20486;-65
2021/07/25 11:13:16;;;;;;;9.97;9.03;;;21.00;99.90;;;;;;5079647;28;20459;-69
2021/07/25 11:15:44;;;;;;;12.80;9.87;;;20.90;99.90;;;;;;5079044;28;20454;-66
2021/07/25 11:18:12;;;;;;;10.80;9.40;;;21.00;99.90;;;;;;5084098;28;20835;-68
2021/07/25 11:20:56;;;;;;;11.20;9.70;;;21.20;99.90;;;;;;5080445;28;20442;-68
2021/07/25 11:23:35;;;;;;;11.20;10.20;;;21.40;99.90;;;;;;5081347;28;20445;-68
2021/07/25 11:26:34;;;;;;;11.70;8.23;;;21.60;99.90;;;;;;5078153;28;21054;-69
2021/07/25 11:29:04;;;;;;;11.30;9.20;;;21.60;99.90;;;;;;5079452;28;20538;-67
2021/07/25 11:31:38;;;;;;;10.33;9.33;;;21.60;99.90;;;;;;5080946;28;20490;-68
2021/07/25 11:34:07;;;;;;;10.43;9.13;;;21.60;99.90;;;;;;5082275;28;20474;-66
2021/07/25 11:36:36;;;;;;;10.27;8.80;;;21.60;99.90;;;;;;5083507;28;20947;-68
2021/07/25 11:39:05;;;;;;;10.60;8.20;;;21.60;99.90;;;;;;5079846;28;20457;-66
2021/07/25 11:41:34;;;;;;;8.77;7.93;;;21.70;99.90;;;;;;5081288;28;20959;-69
2021/07/25 11:44:02;;;;;;;9.77;8.50;;;21.80;99.90;;;;;;5081241;28;20548;-63
2021/07/25 11:46:35;;;;;;;9.80;7.60;;;22.00;99.90;;;;;;5085428;28;20446;-67
2021/07/25 11:49:07;;;;;;;9.17;8.27;;;22.10;99.90;;;;;;5080088;28;20470;-68
2021/07/25 11:51:34;;;;;;;7.77;6.50;;;22.10;99.90;;;;;;5081090;28;20570;-69
2021/07/25 11:54:03;;;;;;;7.83;6.77;;;22.30;99.90;;;;;;5078970;28;20935;-67
2021/07/25 11:56:30;;;;;;;12.10;8.63;;;22.40;99.90;;;;;;5076600;28;21198;-68
2021/07/25 11:59:02;;;;;;;8.40;6.80;;;22.60;99.90;;;;;;5079885;28;20521;-70
2021/07/25 12:01:29;;;;;;;8.27;6.60;;;22.80;99.90;;;;;;5090247;28;20439;-68
2021/07/25 12:03:56;;;;;;;7.73;7.03;;;22.90;99.90;;;;;;5090216;28;20541;-65
2021/07/25 12:06:23;;;;;;;7.83;7.13;;;23.10;99.90;;;;;;5089974;28;20533;-68
2021/07/25 12:09:05;;;;;;;8.00;7.00;;;23.10;99.90;;;;;;5079805;28;20816;-66
2021/07/25 12:11:32;;;;;;;7.40;6.70;;;23.30;99.90;;;;;;5069814;28;20644;-66
2021/07/25 12:13:59;;;;;;;7.50;6.80;;;23.50;99.90;;;;;;5069679;28;20447;-70
2021/07/25 12:16:26;;;;;;;7.97;7.10;;;23.30;99.90;;;;;;5069703;28;20465;-65
2021/07/25 12:18:53;;;;;;;8.30;7.03;;;23.20;99.90;;;;;;5076824;28;20526;-69
2021/07/25 12:21:31;;;;;;;8.57;6.70;;;23.20;99.90;;;;;;5083122;28;20460;-65
2021/07/25 12:23:58;;;;;;;10.53;8.33;;;23.00;99.90;;;;;;5079798;28;20523;-65
2021/07/25 12:26:43;;;;;;;10.20;7.97;;;22.90;99.90;;;;;;5086183;28;20450;-66
2021/07/25 12:29:38;;;;;;;8.10;7.03;;;22.80;99.90;;;;;;5082152;28;20538;-65
2021/07/25 12:32:26;;;;;;;7.63;6.83;;;22.60;99.90;;;;;;5083153;28;20856;-64
2021/07/25 12:34:55;;;;;;;7.90;7.10;;;22.30;99.90;;;;;;5079542;28;20445;-65
2021/07/25 12:37:26;;;;;;;9.67;8.67;;;22.20;99.90;;;;;;5081791;28;20857;-62
2021/07/25 12:40:05;;;;;;;10.60;8.23;;;22.10;99.90;;;;;;5075229;28;21055;-64
2021/07/25 12:42:44;;;;;;;10.63;9.53;;;22.00;99.90;;;;;;5083093;28;20448;-67
2021/07/25 12:45:28;;;;;;;9.97;8.40;;;21.90;99.90;;;;;;5079309;28;20442;-64